createdAt,value
2019-01-26T00:01:12.078Z,37.00
2019-01-26T00:03:41.172Z,37.30
2019-01-26T00:06:10.287Z,42.05
2019-01-26T00:08:39.740Z,39.50
2019-01-26T00:11:11.828Z,40.03
2019-01-26T00:13:40.791Z,39.95
2019-01-26T00:16:09.818Z,43.00
2019-01-26T00:18:38.715Z,39.88
2019-01-26T00:21:07.795Z,38.00
2019-01-26T00:23:36.798Z,37.93
2019-01-26T00:26:05.873Z,38.15
2019-01-26T00:28:34.853Z,31.95
2019-01-26T00:31:04.187Z,41.70
2019-01-26T00:33:33.158Z,43.30
2019-01-26T00:36:05.368Z,50.88
2019-01-26T00:38:34.509Z,41.50
2019-01-26T00:41:03.520Z,41.25
2019-01-26T00:43:32.907Z,50.40
2019-01-26T00:46:01.871Z,39.48
2019-01-26T00:48:31.061Z,42.38
2019-01-26T00:51:01.530Z,40.67
2019-01-26T00:53:30.744Z,38.35
2019-01-26T00:56:00.081Z,43.38
2019-01-26T00:58:29.364Z,41.92
2019-01-26T01:00:58.412Z,41.75
2019-01-26T01:03:27.451Z,38.58
2019-01-26T01:05:56.534Z,39.67
2019-01-26T01:08:25.561Z,36.53
2019-01-26T01:10:54.676Z,41.95
2019-01-26T01:13:23.728Z,32.58
2019-01-26T01:15:53.080Z,38.13
2019-01-26T01:18:22.029Z,41.18
2019-01-26T01:20:50.972Z,33.73
2019-01-26T01:23:19.996Z,38.05
2019-01-26T01:25:48.871Z,34.70
2019-01-26T01:28:17.968Z,32.55
2019-01-26T01:30:46.958Z,37.20
2019-01-26T01:33:16.053Z,38.10
2019-01-26T01:35:45.139Z,32.15
2019-01-26T01:38:14.201Z,32.33
2019-01-26T01:40:43.567Z,31.93
2019-01-26T01:43:12.539Z,32.15
2019-01-26T01:45:41.809Z,28.55
2019-01-26T01:48:11.061Z,27.30
2019-01-26T01:50:40.247Z,30.02
2019-01-26T01:53:09.197Z,33.48
2019-01-26T01:55:38.171Z,26.12
2019-01-26T01:58:07.478Z,27.40
2019-01-26T02:00:36.690Z,24.23
2019-01-26T02:03:06.028Z,21.35
2019-01-26T02:05:35.111Z,25.37
2019-01-26T02:08:04.377Z,27.48
2019-01-26T02:10:33.567Z,22.70
2019-01-26T02:13:05.513Z,23.15
2019-01-26T02:15:34.543Z,25.82
2019-01-26T02:18:03.937Z,25.43
2019-01-26T02:20:33.019Z,27.52
2019-01-26T02:23:02.640Z,25.43
2019-01-26T02:25:31.721Z,27.80
2019-01-26T02:28:01.209Z,24.80
2019-01-26T02:30:30.391Z,25.40
2019-01-26T02:32:59.417Z,23.02
2019-01-26T02:35:28.491Z,22.37
2019-01-26T02:37:57.829Z,25.48
2019-01-26T02:40:27.014Z,22.95
2019-01-26T02:42:55.958Z,21.33
2019-01-26T02:45:24.949Z,23.02
2019-01-26T02:47:54.165Z,23.92
2019-01-26T02:50:23.367Z,22.32
2019-01-26T02:52:52.512Z,25.65
2019-01-26T02:55:24.722Z,25.65
2019-01-26T02:57:53.718Z,25.55
2019-01-26T03:00:23.799Z,25.20
2019-01-26T03:02:52.943Z,27.85
2019-01-26T03:05:23.176Z,25.92
2019-01-26T03:07:52.712Z,27.27
2019-01-26T03:10:23.535Z,25.32
2019-01-26T03:12:54.508Z,32.53
2019-01-26T03:15:24.301Z,31.45
2019-01-26T03:17:53.391Z,34.92
2019-01-26T03:20:22.492Z,29.72
2019-01-26T03:22:51.337Z,38.85
2019-01-26T03:25:20.375Z,37.28
2019-01-26T03:27:49.594Z,35.03
2019-01-26T03:30:20.754Z,31.97
2019-01-26T03:32:49.881Z,30.20
2019-01-26T03:35:19.275Z,33.50
2019-01-26T03:37:48.489Z,29.65
2019-01-26T03:40:22.492Z,29.65
2019-01-26T03:42:54.706Z,30.72
2019-01-26T03:45:24.328Z,30.75
2019-01-26T03:47:53.439Z,34.60
2019-01-26T03:50:22.528Z,37.10
2019-01-26T03:52:51.930Z,34.75
2019-01-26T03:55:21.498Z,37.00
2019-01-26T03:57:51.193Z,37.65
2019-01-26T04:00:22.549Z,35.75
2019-01-26T04:02:51.691Z,36.45
2019-01-26T04:05:21.079Z,31.12
2019-01-26T04:07:50.734Z,37.58
2019-01-26T04:10:19.921Z,30.57
2019-01-26T04:12:49.369Z,36.75
2019-01-26T04:15:18.693Z,39.05
2019-01-26T04:17:47.703Z,31.87
2019-01-26T04:20:21.218Z,33.48
2019-01-26T04:22:50.384Z,29.77
2019-01-26T04:25:19.544Z,30.10
2019-01-26T04:27:48.657Z,28.17
2019-01-26T04:30:19.528Z,31.77
2019-01-26T04:32:50.716Z,35.17
2019-01-26T04:35:20.099Z,30.82
2019-01-26T04:37:49.192Z,36.53
2019-01-26T04:40:18.731Z,36.95
2019-01-26T04:42:49.660Z,33.33
2019-01-26T04:45:20.427Z,36.40
2019-01-26T04:47:49.819Z,31.02
2019-01-26T04:50:21.418Z,34.40
2019-01-26T04:52:50.374Z,31.73
2019-01-26T04:55:20.684Z,27.13
2019-01-26T04:57:49.740Z,28.07
2019-01-26T05:00:23.835Z,28.90
2019-01-26T05:02:52.952Z,29.92
2019-01-26T05:05:22.239Z,25.80
2019-01-26T05:07:51.165Z,21.35
2019-01-26T05:10:20.079Z,27.20
2019-01-26T05:12:49.051Z,37.65
2019-01-26T05:15:18.756Z,23.75
2019-01-26T05:17:47.669Z,26.40
2019-01-26T05:20:24.272Z,24.77
2019-01-26T05:22:53.125Z,24.75
2019-01-26T05:25:22.472Z,28.95
2019-01-26T05:27:51.408Z,29.52
2019-01-26T05:30:28.902Z,25.37
2019-01-26T05:32:57.704Z,23.62
2019-01-26T05:35:26.502Z,25.80
2019-01-26T05:37:55.312Z,27.58
2019-01-26T05:40:24.286Z,26.20
2019-01-26T05:42:53.162Z,24.80
2019-01-26T05:45:22.768Z,23.10
2019-01-26T05:47:51.845Z,25.82
2019-01-26T05:50:25.365Z,25.08
2019-01-26T05:52:54.841Z,21.77
2019-01-26T05:55:23.707Z,24.67
2019-01-26T05:57:52.493Z,22.95
2019-01-26T06:00:29.507Z,20.20
2019-01-26T06:02:58.362Z,24.05
2019-01-26T06:05:27.472Z,21.05
2019-01-26T06:07:57.668Z,23.42
2019-01-26T06:10:26.629Z,22.22
2019-01-26T06:12:55.659Z,22.15
2019-01-26T06:15:24.505Z,23.62
2019-01-26T06:17:55.163Z,23.45
2019-01-26T06:20:23.978Z,24.05
2019-01-26T06:22:52.931Z,23.50
2019-01-26T06:25:21.918Z,27.30
2019-01-26T06:27:50.770Z,17.50
2019-01-26T06:30:21.675Z,21.95
2019-01-26T06:32:50.643Z,21.12
2019-01-26T06:35:19.427Z,19.12
2019-01-26T06:37:48.318Z,19.45
2019-01-26T06:40:17.673Z,18.67
2019-01-26T06:42:46.622Z,16.65
2019-01-26T06:45:17.085Z,18.25
2019-01-26T06:47:45.954Z,19.48
2019-01-26T06:50:18.932Z,18.62
2019-01-26T06:52:48.144Z,19.85
2019-01-26T06:55:17.435Z,18.00
2019-01-26T06:57:46.889Z,20.00
2019-01-26T07:00:18.355Z,16.45
2019-01-26T07:02:47.346Z,18.80
2019-01-26T07:05:34.127Z,15.65
2019-01-26T07:08:03.246Z,15.98
2019-01-26T07:10:32.152Z,15.18
2019-01-26T07:13:01.498Z,15.78
2019-01-26T07:15:30.379Z,15.03
2019-01-26T07:17:59.478Z,16.05
2019-01-26T07:20:28.266Z,14.23
2019-01-26T07:22:57.439Z,14.47
2019-01-26T07:25:26.298Z,15.10
2019-01-26T07:27:55.636Z,14.73
2019-01-26T07:30:25.447Z,14.45
2019-01-26T07:32:55.240Z,16.37
2019-01-26T07:35:25.003Z,19.10
2019-01-26T07:37:53.948Z,14.18
2019-01-26T07:40:22.868Z,14.75
2019-01-26T07:42:52.412Z,13.30
2019-01-26T07:45:21.327Z,13.28
2019-01-26T07:47:50.323Z,15.20
2019-01-26T07:50:19.863Z,17.10
2019-01-26T07:52:48.716Z,12.10
2019-01-26T07:55:17.919Z,14.13
2019-01-26T07:57:46.806Z,11.73
2019-01-26T08:00:19.254Z,12.73
2019-01-26T08:02:47.978Z,12.47
2019-01-26T08:05:16.978Z,14.40
2019-01-26T08:07:46.169Z,11.22
2019-01-26T08:10:17.755Z,11.85
2019-01-26T08:12:46.808Z,11.78
2019-01-26T08:15:17.831Z,13.03
2019-01-26T08:17:46.599Z,10.35
2019-01-26T08:20:17.171Z,11.28
2019-01-26T08:22:45.967Z,10.13
2019-01-26T08:25:15.247Z,11.75
2019-01-26T08:27:44.029Z,11.83
2019-01-26T08:30:18.092Z,12.58
2019-01-26T08:32:47.051Z,11.43
2019-01-26T08:35:16.058Z,14.07
2019-01-26T08:37:44.832Z,11.08
2019-01-26T08:40:14.552Z,11.97
2019-01-26T08:42:43.808Z,14.00
2019-01-26T08:45:13.324Z,11.15
2019-01-26T08:47:42.395Z,11.35
2019-01-26T08:50:19.753Z,10.60
2019-01-26T08:52:48.695Z,12.20
2019-01-26T08:55:18.275Z,12.88
2019-01-26T08:57:47.686Z,14.45
2019-01-26T09:00:21.583Z,11.85
2019-01-26T09:03:09.971Z,9.50
2019-01-26T09:05:51.324Z,14.50
2019-01-26T09:08:20.114Z,11.50
2019-01-26T09:10:49.213Z,10.65
2019-01-26T09:13:18.027Z,8.68
2019-01-26T09:15:46.833Z,11.12
2019-01-26T09:18:15.656Z,13.10
2019-01-26T09:20:44.612Z,9.83
2019-01-26T09:23:13.659Z,133.43
2019-01-26T09:25:42.660Z,12.30
2019-01-26T09:28:11.806Z,11.03
2019-01-26T09:30:40.679Z,11.63
2019-01-26T09:33:09.843Z,11.45
2019-01-26T09:35:38.765Z,9.60
2019-01-26T09:38:07.650Z,12.07
2019-01-26T09:40:36.426Z,9.38
2019-01-26T09:43:05.963Z,13.53
2019-01-26T09:45:34.867Z,10.40
2019-01-26T09:48:03.808Z,9.98
2019-01-26T09:50:32.663Z,10.55
2019-01-26T09:53:01.479Z,13.93
2019-01-26T09:55:30.618Z,10.38
2019-01-26T09:57:59.534Z,9.85
2019-01-26T10:00:28.372Z,11.35
2019-01-26T10:02:57.205Z,11.70
2019-01-26T10:05:27.631Z,10.53
2019-01-26T10:07:56.688Z,12.35
2019-01-26T10:10:25.522Z,10.90
2019-01-26T10:12:54.369Z,11.38
2019-01-26T10:15:23.418Z,12.50
2019-01-26T10:17:52.807Z,10.70
2019-01-26T10:20:23.547Z,12.73
2019-01-26T10:22:52.679Z,10.05
2019-01-26T10:25:21.510Z,12.73
2019-01-26T10:27:50.331Z,14.78
2019-01-26T10:30:24.727Z,11.55
2019-01-26T10:32:53.563Z,12.03
2019-01-26T10:35:24.601Z,11.33
2019-01-26T10:37:53.532Z,13.80
2019-01-26T10:40:41.696Z,12.20
2019-01-26T10:43:10.627Z,13.70
2019-01-26T10:45:39.518Z,10.00
2019-01-26T10:48:08.665Z,14.68
2019-01-26T10:50:37.395Z,13.40
2019-01-26T10:53:06.476Z,14.38
2019-01-26T10:55:35.287Z,13.10
2019-01-26T10:58:04.642Z,14.30
2019-01-26T11:00:33.474Z,10.03
2019-01-26T11:03:02.330Z,11.53
2019-01-26T11:05:31.090Z,13.72
2019-01-26T11:08:00.178Z,13.13
2019-01-26T11:10:29.352Z,9.48
2019-01-26T11:12:58.157Z,10.38
2019-01-26T11:15:27.589Z,10.95
2019-01-26T11:17:56.419Z,11.05
2019-01-26T11:20:25.498Z,9.70
2019-01-26T11:22:54.270Z,14.15
2019-01-26T11:25:23.110Z,13.20
2019-01-26T11:27:51.931Z,11.15
2019-01-26T11:30:22.593Z,13.03
2019-01-26T11:32:51.723Z,11.18
2019-01-26T11:35:20.901Z,10.90
2019-01-26T11:37:50.009Z,12.75
2019-01-26T11:40:21.738Z,13.38
2019-01-26T11:42:50.722Z,9.03
2019-01-26T11:45:44.708Z,12.25
2019-01-26T11:48:20.208Z,11.03
2019-01-26T11:50:53.537Z,9.60
2019-01-26T11:53:22.332Z,11.73
2019-01-26T11:55:56.281Z,10.20
2019-01-26T11:58:25.677Z,11.08
2019-01-26T12:01:11.260Z,13.70
2019-01-26T12:03:44.568Z,14.28
2019-01-26T12:06:16.881Z,14.83
2019-01-26T12:08:45.842Z,11.85
2019-01-26T12:11:14.771Z,11.18
2019-01-26T12:13:43.620Z,11.65
2019-01-26T12:16:13.500Z,11.20
2019-01-26T12:18:42.563Z,11.25
2019-01-26T12:21:11.364Z,12.60
2019-01-26T12:23:40.174Z,13.00
2019-01-26T12:26:09.008Z,11.97
2019-01-26T12:28:38.047Z,12.88
2019-01-26T12:31:29.161Z,11.10
2019-01-26T12:34:27.225Z,12.00
2019-01-26T12:36:49.960Z,9.60
2019-01-26T12:39:22.982Z,12.55
2019-01-26T12:41:54.760Z,11.68
2019-01-26T12:44:23.537Z,10.30
2019-01-26T12:46:53.062Z,9.48
2019-01-26T12:49:29.482Z,8.88
2019-01-26T12:51:59.286Z,15.75
2019-01-26T12:54:30.408Z,13.43
2019-01-26T12:57:16.153Z,9.88
2019-01-26T12:59:46.061Z,9.35
2019-01-26T13:02:15.226Z,10.43
2019-01-26T13:04:46.622Z,9.93
2019-01-26T13:07:17.245Z,9.25
2019-01-26T13:09:48.842Z,9.93
2019-01-26T13:12:19.290Z,8.18
2019-01-26T13:14:48.801Z,10.88
2019-01-26T13:17:28.475Z,9.78
2019-01-26T13:20:01.725Z,9.80
2019-01-26T13:22:35.791Z,9.55
2019-01-26T13:25:07.941Z,12.13
2019-01-26T13:27:37.293Z,18.10
2019-01-26T13:30:10.090Z,16.15
2019-01-26T13:32:39.314Z,17.65
2019-01-26T13:35:08.552Z,14.45
2019-01-26T13:37:37.522Z,11.90
2019-01-26T13:40:08.620Z,11.10
2019-01-26T13:42:37.486Z,9.23
2019-01-26T13:45:08.072Z,12.00
2019-01-26T13:47:37.894Z,11.88
2019-01-26T13:50:07.828Z,9.80
2019-01-26T13:52:37.036Z,9.60
2019-01-26T13:55:06.767Z,13.50
2019-01-26T13:57:35.881Z,10.15
2019-01-26T14:00:07.434Z,13.90
2019-01-26T14:02:36.257Z,11.95
2019-01-26T14:05:06.077Z,14.30
2019-01-26T14:07:34.946Z,13.58
2019-01-26T14:10:06.327Z,9.63
2019-01-26T14:12:35.331Z,11.12
2019-01-26T14:15:04.585Z,11.00
2019-01-26T14:17:33.526Z,10.08
2019-01-26T14:20:02.403Z,9.30
2019-01-26T14:22:31.485Z,11.05
2019-01-26T14:25:00.355Z,8.70
2019-01-26T14:27:29.591Z,7.22
2019-01-26T14:29:58.547Z,9.20
2019-01-26T14:32:27.627Z,10.23
2019-01-26T14:34:56.679Z,8.80
2019-01-26T14:37:25.657Z,7.70
2019-01-26T14:39:54.765Z,9.70
2019-01-26T14:42:23.948Z,10.30
2019-01-26T14:44:53.218Z,9.10
2019-01-26T14:47:25.772Z,9.15
2019-01-26T14:49:59.352Z,8.98
2019-01-26T14:52:28.718Z,9.18
2019-01-26T14:54:57.816Z,8.00
2019-01-26T14:57:26.786Z,8.90
2019-01-26T14:59:55.995Z,8.23
2019-01-26T15:02:27.186Z,9.43
2019-01-26T15:04:56.213Z,8.85
2019-01-26T15:07:25.445Z,8.60
2019-01-26T15:09:54.810Z,7.92
2019-01-26T15:12:23.693Z,6.80
2019-01-26T15:14:54.171Z,7.60
2019-01-26T15:17:23.301Z,10.90
2019-01-26T15:19:55.029Z,9.53
2019-01-26T15:22:24.012Z,11.03
2019-01-26T15:24:53.396Z,11.33
2019-01-26T15:27:23.132Z,8.90
2019-01-26T15:29:57.981Z,11.90
2019-01-26T15:32:28.433Z,10.30
2019-01-26T15:34:57.400Z,9.73
2019-01-26T15:38:22.986Z,9.20
2019-01-26T15:40:51.913Z,14.50
2019-01-26T15:43:20.829Z,10.78
2019-01-26T15:45:50.492Z,10.08
2019-01-26T15:48:19.429Z,11.38
2019-01-26T15:50:48.432Z,10.75
2019-01-26T15:53:17.476Z,11.83
2019-01-26T15:55:46.320Z,11.00
2019-01-26T15:58:15.201Z,10.58
2019-01-26T16:00:45.790Z,12.40
2019-01-26T16:03:15.010Z,12.30
2019-01-26T16:05:44.123Z,10.32
2019-01-26T16:08:13.484Z,12.10
2019-01-26T16:10:42.331Z,11.55
2019-01-26T16:13:11.485Z,12.23
2019-01-26T16:15:41.036Z,12.55
2019-01-26T16:18:15.668Z,11.15
2019-01-26T16:20:56.539Z,11.08
2019-01-26T16:23:26.290Z,12.23
2019-01-26T16:26:01.257Z,11.40
2019-01-26T16:28:30.207Z,11.55
2019-01-26T16:30:59.059Z,12.55
2019-01-26T16:33:28.082Z,11.97
2019-01-26T16:35:57.001Z,12.80
2019-01-26T16:38:25.878Z,12.90
2019-01-26T16:40:54.996Z,14.13
2019-01-26T16:43:23.989Z,18.17
2019-01-26T16:45:52.997Z,14.03
2019-01-26T16:48:22.381Z,16.70
2019-01-26T16:50:51.341Z,14.28
2019-01-26T16:53:20.456Z,14.85
2019-01-26T16:55:49.528Z,10.90
2019-01-26T16:58:18.748Z,12.05
2019-01-26T17:00:49.659Z,13.45
2019-01-26T17:03:18.704Z,14.18
2019-01-26T17:05:47.668Z,14.78
2019-01-26T17:08:16.596Z,12.15
2019-01-26T17:10:45.577Z,16.05
2019-01-26T17:13:14.511Z,16.85
2019-01-26T17:15:43.805Z,15.63
2019-01-26T17:18:14.137Z,16.12
2019-01-26T17:20:45.973Z,15.53
2019-01-26T17:23:15.205Z,14.80
2019-01-26T17:25:45.459Z,16.27
2019-01-26T17:28:14.558Z,18.35
2019-01-26T17:30:44.522Z,16.87
2019-01-26T17:33:13.765Z,18.73
2019-01-26T17:35:43.015Z,16.62
2019-01-26T17:38:12.001Z,17.35
2019-01-26T17:40:40.838Z,18.45
2019-01-26T17:43:10.120Z,15.90
2019-01-26T17:45:40.726Z,17.57
2019-01-26T17:48:16.568Z,17.50
2019-01-26T17:50:48.551Z,18.15
2019-01-26T17:53:17.456Z,18.67
2019-01-26T17:55:46.250Z,17.98
2019-01-26T17:58:15.098Z,19.45
2019-01-26T18:01:02.231Z,18.35
2019-01-26T18:03:31.600Z,21.48
2019-01-26T18:06:01.331Z,19.15
2019-01-26T18:08:30.956Z,20.05
2019-01-26T18:10:59.794Z,18.57
2019-01-26T18:13:28.686Z,19.65
2019-01-26T18:15:57.474Z,19.12
2019-01-26T18:18:26.548Z,19.15
2019-01-26T18:20:55.360Z,18.30
2019-01-26T18:23:29.186Z,17.55
2019-01-26T18:25:58.391Z,19.95
2019-01-26T18:28:27.264Z,19.57
2019-01-26T18:30:56.091Z,16.60
2019-01-26T18:33:25.155Z,18.65
2019-01-26T18:35:54.013Z,17.45
2019-01-26T18:38:22.778Z,16.25
2019-01-26T18:40:51.805Z,17.52
2019-01-26T18:43:20.603Z,18.10
2019-01-26T18:45:49.539Z,14.85
2019-01-26T18:48:18.303Z,17.70
2019-01-26T18:50:48.954Z,16.37
2019-01-26T18:53:17.794Z,16.15
2019-01-26T18:55:46.601Z,16.15
2019-01-26T18:58:15.448Z,16.40
2019-01-26T19:00:47.138Z,17.92
2019-01-26T19:03:45.351Z,15.90
2019-01-26T19:06:14.106Z,15.85
2019-01-26T19:08:42.898Z,15.43
2019-01-26T19:11:11.715Z,16.48
2019-01-26T19:13:40.746Z,16.90
2019-01-26T19:16:09.645Z,17.05
2019-01-26T19:18:38.713Z,16.12
2019-01-26T19:21:07.623Z,16.45
2019-01-26T19:23:36.522Z,19.67
2019-01-26T19:26:05.692Z,17.05
2019-01-26T19:28:34.492Z,20.02
2019-01-26T19:31:03.634Z,17.87
2019-01-26T19:33:32.652Z,15.72
2019-01-26T19:36:01.471Z,16.30
2019-01-26T19:38:30.546Z,15.68
2019-01-26T19:40:59.583Z,15.20
2019-01-26T19:43:28.422Z,16.10
2019-01-26T19:45:57.295Z,17.37
2019-01-26T19:48:26.374Z,17.77
2019-01-26T19:50:55.255Z,19.00
2019-01-26T19:53:24.478Z,16.82
2019-01-26T19:55:53.354Z,19.77
2019-01-26T19:58:22.266Z,17.00
2019-01-26T20:00:51.027Z,18.55
2019-01-26T20:03:21.570Z,16.75
2019-01-26T20:05:50.826Z,19.40
2019-01-26T20:08:19.772Z,17.23
2019-01-26T20:10:48.667Z,18.45
2019-01-26T20:13:17.984Z,17.40
2019-01-26T20:15:46.846Z,16.75
2019-01-26T20:18:15.748Z,16.12
2019-01-26T20:20:44.586Z,17.27
2019-01-26T20:23:13.551Z,16.70
2019-01-26T20:25:42.424Z,16.00
2019-01-26T20:28:11.404Z,17.45
2019-01-26T20:30:40.236Z,17.17
2019-01-26T20:33:09.098Z,18.32
2019-01-26T20:35:37.887Z,20.85
2019-01-26T20:38:06.836Z,16.75
2019-01-26T20:40:35.701Z,16.20
2019-01-26T20:43:04.710Z,20.27
2019-01-26T20:45:34.070Z,18.90
2019-01-26T20:48:03.183Z,18.00
2019-01-26T20:50:31.975Z,17.80
2019-01-26T20:53:00.791Z,19.90
2019-01-26T20:55:29.695Z,20.25
2019-01-26T20:57:59.393Z,21.30
2019-01-26T21:00:29.976Z,21.97
2019-01-26T21:02:59.141Z,20.60
2019-01-26T21:05:28.061Z,21.30
2019-01-26T21:07:57.164Z,24.47
2019-01-26T21:10:27.934Z,24.18
2019-01-26T21:12:57.161Z,23.02
2019-01-26T21:15:26.003Z,22.90
2019-01-26T21:17:54.817Z,23.73
2019-01-26T21:20:24.773Z,21.97
2019-01-26T21:22:53.818Z,26.65
2019-01-26T21:25:22.740Z,22.85
2019-01-26T21:27:51.659Z,22.87
2019-01-26T21:30:29.604Z,22.73
2019-01-26T21:32:59.405Z,22.37
2019-01-26T21:35:28.381Z,22.95
2019-01-26T21:37:57.284Z,22.00
2019-01-26T21:40:31.270Z,19.10
2019-01-26T21:43:01.033Z,17.65
2019-01-26T21:45:30.065Z,18.65
2019-01-26T21:47:58.993Z,20.60
2019-01-26T21:50:29.455Z,20.92
2019-01-26T21:52:58.431Z,22.13
2019-01-26T21:55:27.290Z,20.32
2019-01-26T21:57:56.145Z,19.17
2019-01-26T22:00:30.239Z,17.15
2019-01-26T22:03:00.366Z,18.62
2019-01-26T22:05:29.287Z,18.70
2019-01-26T22:07:58.650Z,19.77
2019-01-26T22:10:29.773Z,18.92
2019-01-26T22:12:58.834Z,18.42
2019-01-26T22:15:27.825Z,16.32
2019-01-26T22:17:56.736Z,17.30
2019-01-26T22:20:27.011Z,14.25
2019-01-26T22:22:56.443Z,19.35
2019-01-26T22:25:25.451Z,14.70
2019-01-26T22:27:55.690Z,15.53
2019-01-26T22:30:26.491Z,12.75
2019-01-26T22:32:55.360Z,13.38
2019-01-26T22:35:24.478Z,12.63
2019-01-26T22:37:53.371Z,9.83
2019-01-26T22:40:27.196Z,10.28
2019-01-26T22:42:55.982Z,10.80
2019-01-26T22:45:26.506Z,11.50
2019-01-26T22:47:55.717Z,9.83
2019-01-26T22:50:24.715Z,9.35
2019-01-26T22:52:53.610Z,8.90
2019-01-26T22:55:24.026Z,9.30
2019-01-26T22:57:53.338Z,8.65
2019-01-26T23:00:41.091Z,7.28
2019-01-26T23:03:10.043Z,7.55
2019-01-26T23:06:03.582Z,7.58
2019-01-26T23:08:33.032Z,8.93
2019-01-26T23:11:19.083Z,8.35
2019-01-26T23:14:17.535Z,7.87
2019-01-26T23:17:40.486Z,7.65
2019-01-26T23:20:30.402Z,7.20
2019-01-26T23:23:22.001Z,5.75
2019-01-26T23:26:00.082Z,6.28
2019-01-26T23:29:20.023Z,5.95
2019-01-26T23:31:48.883Z,6.60
2019-01-26T23:34:17.687Z,7.17
2019-01-26T23:36:46.716Z,8.53
2019-01-26T23:39:15.788Z,5.40
2019-01-26T23:41:44.928Z,6.17
2019-01-26T23:44:13.727Z,8.10
2019-01-26T23:46:42.566Z,5.28
2019-01-26T23:49:11.378Z,6.50
2019-01-26T23:51:40.310Z,5.83
2019-01-26T23:54:09.383Z,5.47
2019-01-26T23:56:38.187Z,6.05
2019-01-26T23:59:06.942Z,7.72
